createdAt,value
2022-11-13T00:00:41.305Z,23.10
2022-11-13T00:01:41.484Z,20.00
2022-11-13T00:02:41.728Z,21.90
2022-11-13T00:03:41.871Z,22.20
2022-11-13T00:04:42.071Z,23.80
2022-11-13T00:05:42.182Z,22.90
2022-11-13T00:06:42.410Z,25.10
2022-11-13T00:07:42.542Z,19.90
2022-11-13T00:08:42.753Z,24.50
2022-11-13T00:09:42.904Z,21.80
2022-11-13T00:10:43.084Z,20.00
2022-11-13T00:11:43.273Z,18.90
2022-11-13T00:12:43.482Z,26.10
2022-11-13T00:13:43.651Z,21.40
2022-11-13T00:14:43.793Z,20.10
2022-11-13T00:15:43.986Z,20.10
2022-11-13T00:16:44.164Z,21.10
2022-11-13T00:17:44.354Z,21.50
2022-11-13T00:18:44.556Z,20.00
2022-11-13T00:19:44.693Z,18.10
2022-11-13T00:20:44.882Z,20.50
2022-11-13T00:21:45.073Z,22.50
2022-11-13T00:22:45.253Z,20.10
2022-11-13T00:23:45.455Z,20.00
2022-11-13T00:24:45.600Z,21.40
2022-11-13T00:25:45.762Z,23.30
2022-11-13T00:26:45.944Z,17.40
2022-11-13T00:27:46.133Z,20.80
2022-11-13T00:28:46.333Z,18.10
2022-11-13T00:29:46.491Z,22.80
2022-11-13T00:30:46.674Z,21.90
2022-11-13T00:31:46.859Z,16.30
2022-11-13T00:32:47.043Z,17.80
2022-11-13T00:34:19.582Z,22.80
2022-11-13T00:34:48.738Z,18.90
2022-11-13T00:35:47.605Z,16.90
2022-11-13T00:36:47.773Z,18.00
2022-11-13T00:37:47.942Z,18.80
2022-11-13T00:38:48.141Z,18.90
2022-11-13T00:39:48.355Z,18.50
2022-11-13T00:40:48.491Z,19.60
2022-11-13T00:41:48.682Z,18.80
2022-11-13T00:42:48.850Z,20.40
2022-11-13T00:43:49.051Z,23.80
2022-11-13T00:44:49.203Z,18.40
2022-11-13T00:45:49.371Z,14.10
2022-11-13T00:46:49.541Z,16.30
2022-11-13T00:47:49.711Z,17.70
2022-11-13T00:48:49.904Z,18.40
2022-11-13T00:49:50.080Z,20.50
2022-11-13T00:50:50.241Z,18.00
2022-11-13T00:51:50.424Z,19.10
2022-11-13T00:52:50.592Z,16.10
2022-11-13T00:53:50.781Z,18.50
2022-11-13T00:54:50.972Z,17.30
2022-11-13T00:55:51.142Z,17.80
2022-11-13T00:56:51.321Z,18.80
2022-11-13T00:57:51.471Z,16.90
2022-11-13T00:58:51.661Z,14.80
2022-11-13T00:59:51.825Z,17.40
2022-11-13T01:00:51.996Z,15.10
2022-11-13T01:01:52.305Z,14.70
2022-11-13T01:02:52.358Z,18.50
2022-11-13T01:03:52.540Z,15.30
2022-11-13T01:04:52.836Z,14.20
2022-11-13T01:05:52.882Z,22.50
2022-11-13T01:06:53.118Z,13.50
2022-11-13T01:07:53.223Z,20.10
2022-11-13T01:08:53.400Z,13.70
2022-11-13T01:09:53.580Z,18.50
2022-11-13T01:10:54.030Z,14.00
2022-11-13T01:11:53.933Z,13.20
2022-11-13T01:12:54.080Z,18.60
2022-11-13T01:13:54.270Z,17.50
2022-11-13T01:14:54.411Z,15.00
2022-11-13T01:15:54.611Z,16.00
2022-11-13T01:16:54.743Z,17.30
2022-11-13T01:17:54.921Z,13.00
2022-11-13T01:18:55.100Z,15.30
2022-11-13T01:19:55.297Z,14.90
2022-11-13T01:20:55.429Z,12.60
2022-11-13T01:21:55.610Z,16.70
2022-11-13T01:22:55.770Z,17.20
2022-11-13T01:23:56.009Z,14.10
2022-11-13T01:24:56.110Z,11.70
2022-11-13T01:25:56.302Z,11.60
2022-11-13T01:26:56.439Z,13.10
2022-11-13T01:27:56.609Z,10.70
2022-11-13T01:28:56.802Z,12.50
2022-11-13T01:29:56.969Z,11.10
2022-11-13T01:30:57.147Z,12.50
2022-11-13T01:31:57.316Z,12.80
2022-11-13T01:32:57.487Z,14.00
2022-11-13T01:33:57.669Z,14.60
2022-11-13T01:34:57.839Z,16.40
2022-11-13T01:35:58.019Z,14.40
2022-11-13T01:36:58.190Z,12.30
2022-11-13T01:37:58.385Z,10.10
2022-11-13T01:38:58.549Z,13.90
2022-11-13T01:39:58.729Z,10.60
2022-11-13T01:40:58.920Z,12.80
2022-11-13T01:41:59.059Z,10.70
2022-11-13T01:42:59.231Z,10.60
2022-11-13T01:43:59.427Z,11.50
2022-11-13T01:44:59.558Z,11.10
2022-11-13T01:45:59.747Z,15.50
2022-11-13T01:46:59.909Z,14.40
2022-11-13T01:48:00.089Z,13.20
2022-11-13T01:49:00.267Z,10.30
2022-11-13T01:50:00.439Z,13.60
2022-11-13T01:51:00.607Z,14.50
2022-11-13T01:52:00.782Z,13.70
2022-11-13T01:53:00.952Z,13.40
2022-11-13T01:54:01.138Z,14.00
2022-11-13T01:55:01.299Z,12.80
2022-11-13T01:56:01.476Z,16.70
2022-11-13T01:57:01.637Z,15.00
2022-11-13T01:58:01.894Z,14.90
2022-11-13T01:59:01.986Z,11.30
2022-11-13T02:00:02.230Z,15.10
2022-11-13T02:01:02.308Z,11.50
2022-11-13T02:02:02.538Z,13.30
2022-11-13T02:03:02.659Z,14.40
2022-11-13T02:04:02.847Z,10.90
2022-11-13T02:05:03.023Z,12.70
2022-11-13T02:06:03.199Z,11.40
2022-11-13T02:07:03.391Z,15.30
2022-11-13T02:08:03.562Z,15.40
2022-11-13T02:09:03.739Z,13.10
2022-11-13T02:10:03.917Z,9.80
2022-11-13T02:11:04.068Z,9.00
2022-11-13T02:12:04.269Z,16.30
2022-11-13T02:13:04.437Z,11.10
2022-11-13T02:14:04.628Z,11.70
2022-11-13T02:15:04.786Z,9.90
2022-11-13T02:16:04.999Z,12.30
2022-11-13T02:17:05.178Z,12.60
2022-11-13T02:18:05.360Z,10.80
2022-11-13T02:19:05.537Z,15.10
2022-11-13T02:20:05.718Z,11.40
2022-11-13T02:21:05.878Z,14.30
2022-11-13T02:22:06.049Z,13.80
2022-11-13T02:23:06.219Z,12.80
2022-11-13T02:24:06.406Z,10.60
2022-11-13T02:25:06.566Z,10.20
2022-11-13T02:26:06.737Z,10.60
2022-11-13T02:27:06.907Z,9.10
2022-11-13T02:28:07.069Z,11.30
2022-11-13T02:29:07.246Z,12.70
2022-11-13T02:30:07.555Z,10.30
2022-11-13T02:31:07.578Z,14.60
2022-11-13T02:32:07.746Z,8.70
2022-11-13T02:33:07.917Z,11.70
2022-11-13T02:34:08.111Z,14.70
2022-11-13T02:35:08.275Z,9.60
2022-11-13T02:36:08.468Z,11.00
2022-11-13T02:37:08.629Z,11.00
2022-11-13T02:38:08.797Z,11.00
2022-11-13T02:39:08.976Z,14.20
2022-11-13T02:40:09.156Z,9.50
2022-11-13T02:41:09.354Z,11.10
2022-11-13T02:42:09.491Z,12.90
2022-11-13T02:43:09.676Z,10.50
2022-11-13T02:44:09.868Z,10.70
2022-11-13T02:45:10.036Z,7.90
2022-11-13T02:46:10.195Z,13.40
2022-11-13T02:47:10.366Z,10.30
2022-11-13T02:48:10.544Z,11.40
2022-11-13T02:49:10.727Z,13.70
2022-11-13T02:50:10.895Z,9.90
2022-11-13T02:51:11.082Z,12.70
2022-11-13T02:52:11.297Z,7.80
2022-11-13T02:53:11.430Z,13.20
2022-11-13T02:54:16.486Z,11.90
2022-11-13T02:55:12.786Z,8.60
2022-11-13T02:56:11.926Z,12.80
2022-11-13T02:57:12.100Z,9.30
2022-11-13T02:58:12.256Z,9.70
2022-11-13T02:59:12.446Z,9.40
2022-11-13T03:00:14.282Z,9.50
2022-11-13T03:01:12.824Z,10.90
2022-11-13T03:02:12.977Z,10.20
2022-11-13T03:03:13.156Z,10.80
2022-11-13T03:04:13.343Z,10.00
2022-11-13T03:05:14.133Z,9.90
2022-11-13T03:06:13.694Z,11.20
2022-11-13T03:07:13.858Z,8.60
2022-11-13T03:08:13.998Z,14.20
2022-11-13T03:09:14.187Z,11.80
2022-11-13T03:10:14.354Z,8.60
2022-11-13T03:11:14.512Z,11.00
2022-11-13T03:12:14.695Z,11.20
2022-11-13T03:13:14.875Z,11.80
2022-11-13T03:14:15.078Z,11.40
2022-11-13T03:15:15.245Z,11.80
2022-11-13T03:16:15.414Z,9.60
2022-11-13T03:17:15.576Z,8.30
2022-11-13T03:18:15.734Z,13.70
2022-11-13T03:19:15.944Z,11.70
2022-11-13T03:20:16.116Z,10.00
2022-11-13T03:21:16.284Z,12.30
2022-11-13T03:22:16.456Z,11.50
2022-11-13T03:23:16.632Z,10.40
2022-11-13T03:24:16.816Z,10.30
2022-11-13T03:25:16.985Z,9.30
2022-11-13T03:26:17.145Z,11.00
2022-11-13T03:27:17.315Z,12.80
2022-11-13T03:28:17.474Z,13.70
2022-11-13T03:29:17.666Z,11.60
2022-11-13T03:30:17.833Z,10.80
2022-11-13T03:31:18.004Z,9.20
2022-11-13T03:32:18.161Z,9.90
2022-11-13T03:33:18.325Z,10.40
2022-11-13T03:34:18.530Z,9.70
2022-11-13T03:35:18.657Z,11.50
2022-11-13T03:36:18.824Z,9.00
2022-11-13T03:37:18.985Z,11.30
2022-11-13T03:38:19.154Z,10.20
2022-11-13T03:39:19.333Z,9.40
2022-11-13T03:40:19.494Z,10.90
2022-11-13T03:41:19.664Z,9.70
2022-11-13T03:42:20.814Z,10.90
2022-11-13T03:43:19.982Z,10.60
2022-11-13T03:44:20.153Z,9.30
2022-11-13T03:45:20.315Z,13.20
2022-11-13T03:46:20.487Z,13.00
2022-11-13T03:47:20.704Z,15.90
2022-11-13T03:48:20.833Z,10.50
2022-11-13T03:49:21.024Z,9.80
2022-11-13T03:50:21.174Z,15.50
2022-11-13T03:51:21.345Z,13.20
2022-11-13T03:52:21.513Z,12.60
2022-11-13T03:53:21.691Z,12.20
2022-11-13T03:54:21.873Z,13.20
2022-11-13T03:55:22.043Z,13.00
2022-11-13T03:56:22.205Z,11.60
2022-11-13T03:57:22.374Z,11.50
2022-11-13T03:58:22.544Z,13.80
2022-11-13T03:59:22.733Z,11.20
2022-11-13T04:00:22.872Z,10.80
2022-11-13T04:01:23.086Z,18.60
2022-11-13T04:02:23.213Z,11.40
2022-11-13T04:03:23.383Z,15.10
2022-11-13T04:04:23.583Z,9.40
2022-11-13T04:05:23.744Z,11.70
2022-11-13T04:06:23.914Z,13.10
2022-11-13T04:07:24.100Z,10.80
2022-11-13T04:08:24.263Z,12.60
2022-11-13T04:09:24.443Z,9.80
2022-11-13T04:10:24.601Z,10.00
2022-11-13T04:11:24.773Z,9.80
2022-11-13T04:12:24.936Z,11.90
2022-11-13T04:13:25.112Z,12.80
2022-11-13T04:14:25.292Z,10.90
2022-11-13T04:15:25.462Z,9.90
2022-11-13T04:16:25.612Z,10.50
2022-11-13T04:17:25.783Z,9.10
2022-11-13T04:18:26.284Z,10.10
2022-11-13T04:19:26.152Z,10.20
2022-11-13T04:20:26.312Z,9.80
2022-11-13T04:21:26.511Z,9.10
2022-11-13T04:22:26.661Z,10.60
2022-11-13T04:23:26.839Z,8.00
2022-11-13T04:24:27.003Z,6.80
2022-11-13T04:25:27.164Z,8.80
2022-11-13T04:26:27.342Z,7.30
2022-11-13T04:27:27.514Z,10.10
2022-11-13T04:28:28.228Z,8.30
2022-11-13T04:29:27.882Z,11.20
2022-11-13T04:30:28.042Z,11.20
2022-11-13T04:31:28.213Z,6.00
2022-11-13T04:32:28.372Z,10.60
2022-11-13T04:33:28.560Z,12.80
2022-11-13T04:34:28.724Z,9.00
2022-11-13T04:35:28.921Z,9.10
2022-11-13T04:36:29.076Z,8.10
2022-11-13T04:37:29.273Z,8.30
2022-11-13T04:38:29.775Z,9.00
2022-11-13T04:39:29.612Z,8.50
2022-11-13T04:40:29.763Z,8.30
2022-11-13T04:41:29.962Z,11.30
2022-11-13T04:42:30.136Z,10.30
2022-11-13T04:43:30.323Z,9.80
2022-11-13T04:44:30.479Z,7.40
2022-11-13T04:45:30.671Z,10.00
2022-11-13T04:46:30.843Z,7.70
2022-11-13T04:47:31.012Z,8.00
2022-11-13T04:48:31.326Z,8.20
2022-11-13T04:49:31.349Z,9.90
2022-11-13T04:50:31.503Z,10.20
2022-11-13T04:51:31.672Z,12.80
2022-11-13T04:52:31.842Z,8.30
2022-11-13T04:53:32.021Z,7.90
2022-11-13T04:54:32.181Z,10.50
2022-11-13T04:55:32.354Z,9.20
2022-11-13T04:56:32.510Z,7.90
2022-11-13T04:57:32.674Z,8.70
2022-11-13T04:58:32.841Z,7.40
2022-11-13T04:59:33.000Z,8.40
2022-11-13T05:00:33.160Z,6.80
2022-11-13T05:01:33.378Z,8.50
2022-11-13T05:02:33.483Z,7.20
2022-11-13T05:03:33.691Z,8.90
2022-11-13T05:04:33.840Z,12.30
2022-11-13T05:05:34.021Z,11.40
2022-11-13T05:06:34.198Z,14.60
2022-11-13T05:07:34.372Z,10.60
2022-11-13T05:08:34.550Z,9.50
2022-11-13T05:09:34.710Z,9.10
2022-11-13T05:10:34.871Z,8.80
2022-11-13T05:11:35.030Z,10.80
2022-11-13T05:12:35.230Z,9.40
2022-11-13T05:13:35.390Z,8.80
2022-11-13T05:14:35.551Z,11.70
2022-11-13T05:15:35.764Z,9.40
2022-11-13T05:16:35.887Z,8.20
2022-11-13T05:17:36.102Z,12.20
2022-11-13T05:18:36.271Z,9.50
2022-11-13T05:19:36.429Z,12.70
2022-11-13T05:20:36.600Z,12.70
2022-11-13T05:21:36.770Z,9.20
2022-11-13T05:22:36.950Z,11.10
2022-11-13T05:23:37.126Z,10.80
2022-11-13T05:24:37.290Z,13.40
2022-11-13T05:25:37.468Z,10.40
2022-11-13T05:26:37.630Z,8.50
2022-11-13T05:27:37.810Z,10.10
2022-11-13T05:28:37.979Z,11.10
2022-11-13T05:29:38.158Z,12.60
2022-11-13T05:30:38.322Z,7.40
2022-11-13T05:31:38.518Z,10.20
2022-11-13T05:32:38.707Z,11.60
2022-11-13T05:33:38.881Z,8.50
2022-11-13T05:34:39.040Z,11.60
2022-11-13T05:35:39.209Z,13.60
2022-11-13T05:36:39.379Z,8.00
2022-11-13T05:37:39.561Z,5.70
2022-11-13T05:38:39.718Z,9.70
2022-11-13T05:39:39.879Z,11.40
2022-11-13T05:40:40.041Z,13.60
2022-11-13T05:41:40.209Z,16.60
2022-11-13T05:42:40.391Z,8.50
2022-11-13T05:43:40.548Z,9.70
2022-11-13T05:44:40.710Z,11.10
2022-11-13T05:45:40.888Z,10.90
2022-11-13T05:46:41.049Z,9.50
2022-11-13T05:47:41.261Z,8.40
2022-11-13T05:48:41.418Z,12.50
2022-11-13T05:49:41.590Z,10.60
2022-11-13T05:50:41.760Z,8.10
2022-11-13T05:51:41.950Z,9.90
2022-11-13T05:52:42.121Z,8.40
2022-11-13T05:53:42.279Z,10.80
2022-11-13T05:54:42.450Z,11.00
2022-11-13T05:55:42.618Z,9.90
2022-11-13T05:56:42.779Z,9.40
2022-11-13T05:57:42.961Z,9.90
2022-11-13T05:58:43.108Z,12.00
2022-11-13T05:59:43.278Z,9.60
2022-11-13T06:00:43.439Z,8.90
2022-11-13T06:01:43.711Z,8.50
2022-11-13T06:02:43.839Z,9.10
2022-11-13T06:03:43.998Z,8.40
2022-11-13T06:04:44.165Z,10.40
2022-11-13T06:05:44.337Z,12.10
2022-11-13T06:06:44.534Z,8.70
2022-11-13T06:07:44.735Z,8.80
2022-11-13T06:08:44.889Z,11.20
2022-11-13T06:09:45.048Z,9.40
2022-11-13T06:10:45.222Z,8.90
2022-11-13T06:11:45.400Z,7.50
2022-11-13T06:12:45.591Z,8.30
2022-11-13T06:13:45.738Z,7.40
2022-11-13T06:14:45.918Z,7.30
2022-11-13T06:15:46.099Z,6.10
2022-11-13T06:16:46.282Z,9.00
2022-11-13T06:17:46.469Z,11.50
2022-11-13T06:18:46.627Z,7.30
2022-11-13T06:19:46.807Z,8.40
2022-11-13T06:20:46.988Z,8.90
2022-11-13T06:21:47.168Z,8.50
2022-11-13T06:22:47.365Z,6.70
2022-11-13T06:23:47.515Z,8.10
2022-11-13T06:24:47.689Z,8.60
2022-11-13T06:25:47.875Z,8.90
2022-11-13T06:26:48.056Z,8.70
2022-11-13T06:27:48.267Z,7.80
2022-11-13T06:28:48.419Z,7.70
2022-11-13T06:29:48.607Z,6.70
2022-11-13T06:30:48.778Z,11.10
2022-11-13T06:31:48.978Z,6.50
2022-11-13T06:32:49.189Z,7.10
2022-11-13T06:33:49.347Z,7.30
2022-11-13T06:34:49.499Z,9.70
2022-11-13T06:35:49.698Z,8.50
2022-11-13T06:36:49.851Z,11.80
2022-11-13T06:37:50.058Z,7.80
2022-11-13T06:38:50.296Z,6.40
2022-11-13T06:39:50.405Z,8.20
2022-11-13T06:40:50.595Z,10.10
2022-11-13T06:41:50.778Z,10.10
2022-11-13T06:42:50.978Z,7.00
2022-11-13T06:43:51.173Z,6.40
2022-11-13T06:44:51.295Z,5.90
2022-11-13T06:45:51.476Z,8.30
2022-11-13T06:46:51.627Z,9.70
2022-11-13T06:47:51.827Z,6.90
2022-11-13T06:48:52.014Z,7.90
2022-11-13T06:49:52.165Z,7.80
2022-11-13T06:50:52.348Z,7.10
2022-11-13T06:51:52.538Z,7.40
2022-11-13T06:52:52.746Z,6.60
2022-11-13T06:53:52.887Z,6.70
2022-11-13T06:54:53.077Z,9.10
2022-11-13T06:55:53.257Z,7.50
2022-11-13T06:56:53.446Z,9.10
2022-11-13T06:57:53.658Z,9.20
2022-11-13T06:58:53.798Z,6.30
2022-11-13T06:59:53.978Z,8.40
2022-11-13T07:00:54.143Z,8.90
2022-11-13T07:01:54.297Z,6.90
2022-11-13T07:02:54.497Z,7.70
2022-11-13T07:03:54.655Z,6.10
2022-11-13T07:04:54.845Z,11.20
2022-11-13T07:05:55.026Z,6.80
2022-11-13T07:06:55.239Z,9.10
2022-11-13T07:07:55.377Z,12.60
2022-11-13T07:08:55.546Z,12.10
2022-11-13T07:09:55.738Z,9.80
2022-11-13T07:10:55.927Z,12.40
2022-11-13T07:11:56.079Z,9.10
2022-11-13T07:12:56.288Z,8.60
2022-11-13T07:13:56.430Z,9.60
2022-11-13T07:14:56.631Z,8.70
2022-11-13T07:15:56.809Z,5.20
2022-11-13T07:17:09.328Z,9.50
2022-11-13T07:17:58.177Z,9.30
2022-11-13T07:18:57.337Z,10.40
2022-11-13T07:19:57.487Z,9.60
2022-11-13T07:20:57.676Z,10.20
2022-11-13T07:21:57.839Z,8.30
2022-11-13T07:22:58.036Z,9.60
2022-11-13T07:23:58.181Z,9.40
2022-11-13T07:24:58.366Z,10.90
2022-11-13T07:25:58.558Z,9.20
2022-11-13T07:26:58.746Z,11.40
2022-11-13T07:27:58.917Z,7.80
2022-11-13T07:28:59.099Z,13.30
2022-11-13T07:30:03.390Z,11.60
2022-11-13T07:30:59.463Z,9.80
2022-11-13T07:31:59.651Z,9.40
2022-11-13T07:32:59.856Z,11.50
2022-11-13T07:34:00.009Z,12.70
2022-11-13T07:35:00.204Z,10.90
2022-11-13T07:36:00.376Z,9.70
2022-11-13T07:37:00.566Z,13.20
2022-11-13T07:38:00.736Z,11.00
2022-11-13T07:39:00.921Z,11.10
2022-11-13T07:40:01.107Z,13.30
2022-11-13T07:41:01.276Z,12.60
2022-11-13T07:42:01.432Z,9.40
2022-11-13T07:43:01.617Z,9.70
2022-11-13T07:44:04.337Z,12.60
2022-11-13T07:45:01.976Z,12.00
2022-11-13T07:46:02.129Z,9.40
2022-11-13T07:47:02.317Z,9.30
2022-11-13T07:48:02.477Z,10.60
2022-11-13T07:49:02.645Z,8.70
2022-11-13T07:50:08.297Z,10.60
2022-11-13T07:51:04.009Z,10.10
2022-11-13T07:52:03.177Z,9.60
2022-11-13T07:53:03.366Z,13.20
2022-11-13T07:54:03.543Z,12.90
2022-11-13T07:55:03.728Z,8.40
2022-11-13T07:56:03.884Z,10.30
2022-11-13T07:57:04.068Z,10.30
2022-11-13T07:58:04.273Z,9.60
2022-11-13T07:59:04.417Z,11.30
2022-11-13T08:00:04.583Z,8.70
2022-11-13T08:01:04.784Z,7.30
2022-11-13T08:02:04.904Z,10.00
2022-11-13T08:03:05.106Z,12.90
2022-11-13T08:04:05.257Z,10.50
2022-11-13T08:05:05.449Z,10.80
2022-11-13T08:06:05.624Z,10.50
2022-11-13T08:07:05.896Z,9.10
2022-11-13T08:08:05.978Z,9.80
2022-11-13T08:09:06.136Z,11.10
2022-11-13T08:10:06.326Z,9.50
2022-11-13T08:11:06.524Z,11.20
2022-11-13T08:12:06.697Z,10.70
2022-11-13T08:13:06.867Z,9.50
2022-11-13T08:14:07.037Z,10.70
2022-11-13T08:15:10.711Z,10.70
2022-11-13T08:16:08.407Z,11.50
2022-11-13T08:17:07.587Z,9.80
2022-11-13T08:18:07.726Z,10.70
2022-11-13T08:19:07.916Z,10.10
2022-11-13T08:20:08.087Z,11.90
2022-11-13T08:21:14.504Z,10.70
2022-11-13T08:22:09.456Z,14.30
2022-11-13T08:23:08.607Z,15.20
2022-11-13T08:24:08.776Z,12.30
2022-11-13T08:25:08.946Z,14.00
2022-11-13T08:26:09.127Z,10.80
2022-11-13T08:27:09.307Z,15.30
2022-11-13T08:28:13.170Z,12.50
2022-11-13T08:29:09.647Z,13.00
2022-11-13T08:30:09.816Z,15.30
2022-11-13T08:31:09.987Z,10.60
2022-11-13T08:32:10.185Z,11.70
2022-11-13T08:33:10.336Z,14.30
2022-11-13T08:34:10.498Z,13.40
2022-11-13T08:35:10.660Z,12.90
2022-11-13T08:36:10.832Z,15.30
2022-11-13T08:37:11.015Z,12.80
2022-11-13T08:38:11.162Z,16.30
2022-11-13T08:39:11.356Z,14.40
2022-11-13T08:40:11.508Z,12.30
2022-11-13T08:41:11.699Z,16.60
2022-11-13T08:42:11.867Z,14.00
2022-11-13T08:43:12.027Z,17.80
2022-11-13T08:44:12.191Z,12.80
2022-11-13T08:45:12.389Z,15.70
2022-11-13T08:46:12.555Z,15.20
2022-11-13T08:47:12.736Z,16.40
2022-11-13T08:48:12.897Z,15.70
2022-11-13T08:49:13.095Z,15.20
2022-11-13T08:50:13.266Z,14.50
2022-11-13T08:51:13.427Z,15.60
2022-11-13T08:52:13.616Z,16.30
2022-11-13T08:53:13.795Z,17.70
2022-11-13T08:54:13.966Z,18.60
2022-11-13T08:55:14.147Z,15.00
2022-11-13T08:56:14.318Z,15.50
2022-11-13T08:57:14.514Z,15.50
2022-11-13T08:58:14.676Z,16.00
2022-11-13T08:59:14.847Z,12.70
2022-11-13T09:00:15.010Z,16.30
2022-11-13T09:01:15.188Z,18.40
2022-11-13T09:02:15.375Z,18.30
2022-11-13T09:03:15.555Z,14.50
2022-11-13T09:04:15.752Z,17.80
2022-11-13T09:05:15.905Z,18.50
2022-11-13T09:06:16.081Z,15.70
2022-11-13T09:07:16.423Z,13.80
2022-11-13T09:08:16.442Z,15.50
2022-11-13T09:09:16.585Z,17.90
2022-11-13T09:10:16.756Z,14.30
2022-11-13T09:11:16.936Z,13.50
2022-11-13T09:12:17.127Z,15.40
2022-11-13T09:13:17.297Z,16.80
2022-11-13T09:14:17.477Z,12.50
2022-11-13T09:15:21.746Z,13.70
2022-11-13T09:16:18.813Z,15.70
2022-11-13T09:17:18.015Z,15.10
2022-11-13T09:18:18.166Z,16.70
2022-11-13T09:19:18.337Z,17.70
2022-11-13T09:20:22.803Z,14.70
2022-11-13T09:21:18.714Z,14.60
2022-11-13T09:22:18.886Z,13.00
2022-11-13T09:23:19.036Z,12.00
2022-11-13T09:24:19.194Z,14.20
2022-11-13T09:25:19.366Z,17.40
2022-11-13T09:26:19.536Z,17.40
2022-11-13T09:27:19.726Z,13.30
2022-11-13T09:28:19.895Z,14.20
2022-11-13T09:29:20.087Z,16.60
2022-11-13T09:30:20.261Z,13.20
2022-11-13T09:31:20.446Z,14.00
2022-11-13T09:32:20.626Z,16.10
2022-11-13T09:33:20.806Z,17.80
2022-11-13T09:34:20.987Z,16.60
2022-11-13T09:35:21.169Z,15.60
2022-11-13T09:36:21.336Z,17.20
2022-11-13T09:37:21.525Z,13.50
2022-11-13T09:38:21.696Z,14.40
2022-11-13T09:39:21.869Z,15.30
2022-11-13T09:40:22.066Z,16.60
2022-11-13T09:41:22.252Z,15.10
2022-11-13T09:42:22.419Z,13.30
2022-11-13T09:43:22.643Z,15.30
2022-11-13T09:44:22.765Z,13.80
2022-11-13T09:45:22.937Z,13.50
2022-11-13T09:46:23.127Z,14.70
2022-11-13T09:47:23.325Z,15.10
2022-11-13T09:48:23.456Z,13.40
2022-11-13T09:49:23.625Z,13.90
2022-11-13T09:50:23.795Z,15.90
2022-11-13T09:51:23.985Z,13.20
2022-11-13T09:52:24.143Z,16.20
2022-11-13T09:53:24.345Z,15.70
2022-11-13T09:54:24.524Z,16.40
2022-11-13T09:55:24.646Z,14.30
2022-11-13T09:56:24.880Z,16.10
2022-11-13T09:57:26.411Z,15.20
2022-11-13T09:58:25.273Z,16.10
2022-11-13T09:59:25.386Z,14.50
2022-11-13T10:00:25.565Z,13.80
2022-11-13T10:01:25.782Z,15.60
2022-11-13T10:02:25.917Z,12.50
2022-11-13T10:03:54.293Z,17.90
2022-11-13T10:04:27.283Z,15.60
2022-11-13T10:05:26.445Z,13.90
2022-11-13T10:06:26.625Z,14.70
2022-11-13T10:07:26.798Z,14.90
2022-11-13T10:08:27.452Z,13.00
2022-11-13T10:09:27.146Z,16.00
2022-11-13T10:10:27.315Z,14.00
2022-11-13T10:11:27.526Z,15.40
2022-11-13T10:12:27.685Z,15.10
2022-11-13T10:13:27.870Z,16.80
2022-11-13T10:14:28.035Z,13.50
2022-11-13T10:15:28.196Z,14.40
2022-11-13T10:16:28.395Z,14.70
2022-11-13T10:17:28.564Z,15.10
2022-11-13T10:18:29.076Z,13.90
2022-11-13T10:19:28.891Z,13.50
2022-11-13T10:20:29.045Z,15.30
2022-11-13T10:21:29.236Z,15.50
2022-11-13T10:22:34.152Z,14.60
2022-11-13T10:23:30.926Z,13.70
2022-11-13T10:24:29.758Z,17.10
2022-11-13T10:25:30.016Z,14.00
2022-11-13T10:26:30.114Z,14.80
2022-11-13T10:27:30.371Z,13.20
2022-11-13T10:29:31.636Z,12.90
2022-11-13T10:30:30.842Z,13.40
2022-11-13T10:31:30.993Z,12.40
2022-11-13T10:32:31.156Z,12.70
2022-11-13T10:33:31.647Z,11.20
2022-11-13T10:34:31.488Z,13.80
2022-11-13T10:35:31.649Z,12.80
2022-11-13T10:36:31.825Z,13.70
2022-11-13T10:37:31.976Z,12.10
2022-11-13T10:38:32.135Z,10.70
2022-11-13T10:39:32.303Z,10.50
2022-11-13T10:40:32.473Z,12.00
2022-11-13T10:41:32.635Z,13.40
2022-11-13T10:42:32.796Z,13.70
2022-11-13T10:43:33.094Z,12.20
2022-11-13T10:44:33.154Z,12.10
2022-11-13T10:45:33.374Z,12.10
2022-11-13T10:46:33.535Z,12.80
2022-11-13T10:48:02.686Z,10.40
2022-11-13T10:48:34.878Z,9.30
2022-11-13T10:49:34.034Z,10.60
2022-11-13T10:50:34.186Z,10.40
2022-11-13T10:51:34.421Z,10.20
2022-11-13T10:52:34.538Z,10.20
2022-11-13T10:53:34.761Z,10.40
2022-11-13T10:54:34.898Z,9.80
2022-11-13T10:55:35.084Z,10.70
2022-11-13T10:56:35.246Z,13.60
2022-11-13T10:57:35.418Z,11.10
2022-11-13T10:58:35.570Z,10.90
2022-11-13T10:59:35.755Z,10.50
2022-11-13T11:00:35.944Z,11.60
2022-11-13T11:01:36.160Z,12.20
2022-11-13T11:02:36.254Z,9.50
2022-11-13T11:03:36.435Z,10.40
2022-11-13T11:04:36.597Z,11.60
2022-11-13T11:05:36.764Z,14.50
2022-11-13T11:07:12.808Z,15.20
2022-11-13T11:07:38.125Z,13.10
2022-11-13T11:08:37.285Z,11.90
2022-11-13T11:09:37.466Z,12.70
2022-11-13T11:10:37.616Z,9.10
2022-11-13T11:11:37.826Z,12.40
2022-11-13T11:12:37.976Z,12.50
2022-11-13T11:13:38.135Z,11.50
2022-11-13T11:14:38.294Z,10.40
2022-11-13T11:15:38.465Z,13.10
2022-11-13T11:16:38.647Z,12.10
2022-11-13T11:17:38.813Z,9.40
2022-11-13T11:18:38.997Z,10.00
2022-11-13T11:19:39.183Z,9.00
2022-11-13T11:20:39.365Z,12.00
2022-11-13T11:21:39.555Z,13.30
2022-11-13T11:22:39.697Z,10.50
2022-11-13T11:23:39.855Z,8.20
2022-11-13T11:24:40.040Z,11.30
2022-11-13T11:25:40.206Z,12.20
2022-11-13T11:26:40.392Z,13.60
2022-11-13T11:27:40.545Z,10.70
2022-11-13T11:28:40.712Z,8.20
2022-11-13T11:29:40.891Z,12.10
2022-11-13T11:30:41.065Z,10.10
2022-11-13T11:31:41.238Z,11.70
2022-11-13T11:32:41.406Z,7.90
2022-11-13T11:33:41.554Z,10.70
2022-11-13T11:34:41.738Z,10.90
2022-11-13T11:35:41.913Z,9.20
2022-11-13T11:36:42.079Z,9.70
2022-11-13T11:37:42.225Z,9.90
2022-11-13T11:38:42.404Z,7.90
2022-11-13T11:39:42.597Z,11.00
2022-11-13T11:40:42.756Z,7.40
2022-11-13T11:41:42.947Z,11.90
2022-11-13T11:42:43.108Z,11.00
2022-11-13T11:43:43.253Z,10.30
2022-11-13T11:44:43.451Z,9.80
2022-11-13T11:45:43.645Z,11.70
2022-11-13T11:46:46.729Z,11.20
2022-11-13T11:47:43.973Z,9.50
2022-11-13T11:48:44.156Z,8.70
2022-11-13T11:49:44.339Z,10.00
2022-11-13T11:50:44.535Z,14.30
2022-11-13T11:51:44.714Z,9.70
2022-11-13T11:52:44.885Z,11.00
2022-11-13T11:53:45.042Z,10.30
2022-11-13T11:54:45.246Z,10.30
2022-11-13T11:55:45.424Z,11.70
2022-11-13T11:56:45.645Z,10.30
2022-11-13T11:57:45.745Z,13.90
2022-11-13T11:58:45.924Z,10.50
2022-11-13T11:59:46.081Z,11.20
2022-11-13T12:00:46.245Z,12.50
2022-11-13T12:01:46.418Z,10.30
2022-11-13T12:02:46.586Z,10.30
2022-11-13T12:03:46.735Z,10.10
2022-11-13T12:04:46.969Z,12.00
2022-11-13T12:05:47.145Z,10.10
2022-11-13T12:06:47.371Z,13.00
2022-11-13T12:07:47.472Z,11.90
2022-11-13T12:08:47.636Z,15.50
2022-11-13T12:09:47.785Z,10.10
2022-11-13T12:10:47.984Z,9.50
2022-11-13T12:11:48.145Z,12.10
2022-11-13T12:12:48.314Z,9.80
2022-11-13T12:13:48.525Z,10.00
2022-11-13T12:14:48.676Z,12.90
2022-11-13T12:15:48.845Z,13.10
2022-11-13T12:16:49.021Z,12.50
2022-11-13T12:17:49.175Z,7.70
2022-11-13T12:18:49.339Z,13.30
2022-11-13T12:19:49.485Z,9.10
2022-11-13T12:20:49.684Z,8.80
2022-11-13T12:21:49.834Z,11.70
2022-11-13T12:22:49.998Z,10.20
2022-11-13T12:23:50.180Z,10.30
2022-11-13T12:24:50.322Z,10.60
2022-11-13T12:25:50.502Z,12.00
2022-11-13T12:26:50.645Z,10.60
2022-11-13T12:27:50.814Z,11.10
2022-11-13T12:28:50.975Z,9.90
2022-11-13T12:29:51.165Z,9.80
2022-11-13T12:30:51.366Z,10.60
2022-11-13T12:31:51.517Z,9.40
2022-11-13T12:32:51.696Z,11.40
2022-11-13T12:33:55.606Z,10.90
2022-11-13T12:34:53.030Z,12.00
2022-11-13T12:35:52.214Z,10.10
2022-11-13T12:36:52.364Z,11.40
2022-11-13T12:37:52.524Z,8.60
2022-11-13T12:38:52.705Z,10.20
2022-11-13T12:39:52.875Z,10.00
2022-11-13T12:40:53.083Z,10.10
2022-11-13T12:41:53.226Z,9.70
2022-11-13T12:42:53.413Z,10.50
2022-11-13T12:43:53.575Z,9.10
2022-11-13T12:44:53.755Z,11.60
2022-11-13T12:45:53.936Z,10.50
2022-11-13T12:46:54.161Z,11.50
2022-11-13T12:47:54.277Z,9.10
2022-11-13T12:48:54.464Z,10.40
2022-11-13T12:49:54.619Z,10.50
2022-11-13T12:50:54.829Z,14.10
2022-11-13T12:51:54.995Z,12.80
2022-11-13T12:52:55.155Z,10.80
2022-11-13T12:53:55.318Z,11.00
2022-11-13T12:54:55.481Z,10.10
2022-11-13T12:55:55.646Z,11.20
2022-11-13T12:56:55.807Z,21.40
2022-11-13T12:57:55.985Z,9.30
2022-11-13T12:59:23.648Z,9.90
2022-11-13T12:59:57.334Z,11.00
2022-11-13T13:00:56.581Z,11.40
2022-11-13T13:01:56.664Z,9.60
2022-11-13T13:02:56.848Z,8.70